Time;durP1;ratioP1;P1;durP2;ratioP2;P2;SDS_P1;SDS_P2;PMS_P1;PMS_P2;Temp;Humidity;BMP_temperature;BMP_pressure;BME280_temperature;BME280_humidity;BME280_pressure;Samples;Min_cycle;Max_cycle;Signal;HPM_P1;HPM_P2
2021/04/07 00:02:00;;;;;;;6.68;1.80;;;-1.00;91.50;;;;;;5049987;28;20029;-89
2021/04/07 00:04:26;;;;;;;6.68;1.40;;;-1.00;91.40;;;;;;5041974;28;20033;-92
2021/04/07 00:06:54;;;;;;;5.35;2.42;;;-1.10;91.30;;;;;;5051790;28;20036;-88
2021/04/07 00:09:21;;;;;;;3.10;1.40;;;-1.10;91.30;;;;;;5040549;28;20356;-91
2021/04/07 00:11:46;;;;;;;2.88;1.67;;;-1.10;91.30;;;;;;5047578;28;20390;-90
2021/04/07 00:14:12;;;;;;;4.78;1.90;;;-1.10;91.30;;;;;;5046375;28;20021;-89
2021/04/07 00:16:38;;;;;;;3.15;1.85;;;-1.10;91.30;;;;;;5042147;28;20041;-90
2021/04/07 00:19:07;;;;;;;5.80;2.50;;;-1.20;91.20;;;;;;5057136;28;20041;-90
2021/04/07 00:21:34;;;;;;;5.13;2.08;;;-1.30;91.30;;;;;;5045197;28;20032;-89
2021/04/07 00:23:59;;;;;;;4.25;1.75;;;-1.40;91.40;;;;;;5051563;28;20033;-90
2021/04/07 00:26:25;;;;;;;4.95;2.50;;;-1.50;91.50;;;;;;5051714;28;20036;-90
2021/04/07 00:28:51;;;;;;;3.83;1.98;;;-1.50;91.70;;;;;;5053062;28;20044;-90
2021/04/07 00:31:16;;;;;;;5.50;1.90;;;-1.50;92.00;;;;;;5050886;28;20025;-90
2021/04/07 00:33:42;;;;;;;6.82;2.13;;;-1.50;92.10;;;;;;5053679;28;20062;-89
2021/04/07 00:36:08;;;;;;;5.00;2.35;;;-1.50;92.10;;;;;;5051989;28;20025;-89
2021/04/07 00:38:34;;;;;;;6.15;2.40;;;-1.50;92.10;;;;;;5051005;28;20032;-89
2021/04/07 00:41:01;;;;;;;5.85;1.77;;;-1.50;92.10;;;;;;5057786;28;20040;-89
2021/04/07 00:43:27;;;;;;;3.50;1.70;;;-1.50;92.20;;;;;;5047304;28;20155;-90
2021/04/07 00:45:52;;;;;;;3.13;1.60;;;-1.50;92.30;;;;;;5057273;28;20028;-89
2021/04/07 00:48:18;;;;;;;4.47;1.77;;;-1.40;92.40;;;;;;5055210;28;20029;-90
2021/04/07 00:50:44;;;;;;;5.32;1.60;;;-1.40;92.40;;;;;;5047751;28;20029;-90
2021/04/07 00:53:10;;;;;;;7.00;1.30;;;-1.40;92.40;;;;;;5079569;28;20029;-91
2021/04/07 00:55:43;;;;;;;1.58;1.00;;;-1.40;92.40;;;;;;5064639;28;20477;-90
2021/04/07 00:58:16;;;;;;;1.80;1.20;;;-1.40;92.30;;;;;;5062437;28;20175;-90
2021/04/07 01:00:42;;;;;;;3.97;1.30;;;-1.40;92.60;;;;;;5074966;28;20101;-89
2021/04/07 01:03:12;;;;;;;1.98;1.00;;;-1.40;92.20;;;;;;5060298;28;20033;-91
2021/04/07 01:05:38;;;;;;;5.10;0.87;;;-1.40;92.20;;;;;;5077260;28;20036;-90
2021/04/07 01:08:04;;;;;;;1.50;1.00;;;-1.40;92.10;;;;;;5061099;28;20024;-89
2021/04/07 01:10:30;;;;;;;2.85;1.55;;;-1.40;92.10;;;;;;5064291;28;20112;-90
2021/04/07 01:12:56;;;;;;;5.75;1.10;;;-1.40;92.10;;;;;;5077735;28;20469;-89
2021/04/07 01:15:22;;;;;;;3.53;1.52;;;-1.40;92.10;;;;;;5078730;28;20131;-90
2021/04/07 01:17:48;;;;;;;1.67;0.93;;;-1.40;92.10;;;;;;5060272;28;20048;-89
2021/04/07 01:20:20;;;;;;;3.25;1.15;;;-1.40;92.10;;;;;;5053316;28;20042;-89
2021/04/07 01:22:57;;;;;;;1.55;0.70;;;-1.40;92.10;;;;;;5054955;28;20112;-89
2021/04/07 01:25:22;;;;;;;1.23;0.70;;;-1.50;92.00;;;;;;5046873;28;20040;-90
2021/04/07 01:27:48;;;;;;;5.95;1.10;;;-1.50;92.20;;;;;;5052940;28;20079;-89
2021/04/07 01:30:16;;;;;;;3.15;1.20;;;-1.60;91.80;;;;;;5065884;28;20020;-88
2021/04/07 01:32:42;;;;;;;4.10;1.40;;;-1.60;91.90;;;;;;5055192;28;20105;-90
2021/04/07 01:35:10;;;;;;;3.83;1.15;;;-1.60;92.10;;;;;;5053277;28;20475;-90
2021/04/07 01:37:36;;;;;;;3.35;1.08;;;-1.60;92.10;;;;;;5044674;28;20125;-89
2021/04/07 01:40:08;;;;;;;8.32;1.55;;;-1.70;92.00;;;;;;5064393;28;20025;-89
2021/04/07 01:42:35;;;;;;;3.88;1.35;;;-1.70;92.10;;;;;;5044720;28;20469;-91
2021/04/07 01:45:04;;;;;;;2.42;1.48;;;-1.70;92.10;;;;;;5053199;28;20557;-90
2021/04/07 01:47:30;;;;;;;4.07;1.38;;;-1.80;92.10;;;;;;5046732;28;20035;-90
2021/04/07 01:49:58;;;;;;;3.45;1.27;;;-1.80;92.30;;;;;;5053453;28;20123;-90
2021/04/07 01:52:24;;;;;;;2.67;1.05;;;-1.80;92.40;;;;;;5053681;28;20028;-89
2021/04/07 01:54:50;;;;;;;5.93;1.40;;;-1.80;92.50;;;;;;5053892;28;20528;-89
2021/04/07 01:57:15;;;;;;;4.47;1.48;;;-1.80;92.60;;;;;;5046256;28;20029;-90
2021/04/07 01:59:41;;;;;;;4.22;2.03;;;-1.80;92.70;;;;;;5053500;28;20025;-90
2021/04/07 02:02:06;;;;;;;5.30;1.30;;;-1.80;93.00;;;;;;5048607;28;20398;-89
2021/04/07 02:04:32;;;;;;;5.53;1.60;;;-1.80;92.60;;;;;;5069272;28;20032;-91
2021/04/07 02:06:58;;;;;;;8.65;1.30;;;-1.90;92.60;;;;;;5055845;28;20127;-90
2021/04/07 02:09:24;;;;;;;3.70;1.10;;;-1.90;92.80;;;;;;5044646;28;20071;-90
2021/04/07 02:11:53;;;;;;;2.30;1.20;;;-1.90;92.90;;;;;;5049836;28;20501;-90
2021/04/07 02:14:23;;;;;;;2.83;1.00;;;-1.90;93.00;;;;;;5054260;28;20497;-90
2021/04/07 02:16:56;;;;;;;2.78;0.98;;;-1.80;93.00;;;;;;5066696;28;20037;-91
2021/04/07 02:19:22;;;;;;;3.88;0.73;;;-1.90;92.90;;;;;;5055183;28;20494;-89
2021/04/07 02:22:06;;;;;;;1.98;0.70;;;-1.90;93.00;;;;;;5055085;28;20032;-88
2021/04/07 02:24:32;;;;;;;4.70;0.75;;;-1.90;93.10;;;;;;5040784;28;20155;-90
2021/04/07 02:27:01;;;;;;;0.90;0.60;;;-1.90;93.10;;;;;;5055053;28;20058;-89
2021/04/07 02:29:27;;;;;;;4.45;0.73;;;-1.90;93.20;;;;;;5066467;28;20017;-90
2021/04/07 02:31:52;;;;;;;2.67;0.90;;;-1.90;93.20;;;;;;5049100;28;20401;-88
2021/04/07 02:34:18;;;;;;;6.32;0.90;;;-1.90;93.30;;;;;;5055112;28;20024;-90
2021/04/07 02:36:44;;;;;;;1.17;0.68;;;-1.90;93.40;;;;;;5055639;28;20025;-92
2021/04/07 02:39:09;;;;;;;1.65;0.80;;;-1.90;93.60;;;;;;5054224;28;20033;-91
2021/04/07 02:41:35;;;;;;;3.67;0.80;;;-1.90;93.20;;;;;;5065311;28;20052;-92
2021/04/07 02:44:01;;;;;;;2.80;1.23;;;-1.90;93.30;;;;;;5058246;28;20158;-91
2021/04/07 02:46:27;;;;;;;0.45;0.45;;;-1.90;93.40;;;;;;5061955;28;20478;-91
2021/04/07 02:48:52;;;;;;;1.40;1.00;;;-1.90;93.40;;;;;;5061319;28;20372;-90
2021/04/07 02:51:18;;;;;;;4.38;1.38;;;-1.90;93.20;;;;;;5064535;28;20035;-89
2021/04/07 02:53:44;;;;;;;1.58;0.52;;;-2.00;93.10;;;;;;5066356;28;20033;-90
2021/04/07 02:56:09;;;;;;;4.05;1.50;;;-2.00;93.10;;;;;;5069113;28;20096;-90
2021/04/07 02:58:35;;;;;;;4.22;1.88;;;-2.10;93.10;;;;;;5063530;28;20051;-90
2021/04/07 03:01:01;;;;;;;4.57;1.75;;;-2.20;93.10;;;;;;5054263;28;20021;-91
2021/04/07 03:03:27;;;;;;;3.47;1.50;;;-2.30;93.20;;;;;;5058446;28;20028;-90
2021/04/07 03:05:52;;;;;;;2.70;1.20;;;-2.40;93.40;;;;;;5055510;28;20055;-90
2021/04/07 03:08:18;;;;;;;3.78;1.60;;;-2.40;93.50;;;;;;5048345;28;20040;-90
2021/04/07 03:10:44;;;;;;;2.70;1.30;;;-2.50;93.60;;;;;;5070679;28;20032;-90
2021/04/07 03:13:09;;;;;;;5.80;1.27;;;-2.50;93.70;;;;;;5055605;28;20112;-90
2021/04/07 03:15:35;;;;;;;2.00;1.00;;;-2.50;93.80;;;;;;5056629;28;20029;-90
2021/04/07 03:18:00;;;;;;;3.28;1.00;;;-2.50;94.00;;;;;;5052564;28;20098;-90
2021/04/07 03:20:26;;;;;;;2.90;0.93;;;-2.50;94.00;;;;;;5048328;28;20040;-90
2021/04/07 03:22:52;;;;;;;1.13;0.80;;;-2.50;94.10;;;;;;5051243;28;20041;-90
2021/04/07 03:25:17;;;;;;;2.03;1.00;;;-2.50;94.20;;;;;;5052619;28;20029;-92
2021/04/07 03:27:43;;;;;;;4.47;1.00;;;-2.50;94.10;;;;;;5045527;28;20186;-90
2021/04/07 03:30:09;;;;;;;4.53;2.42;;;-2.60;94.10;;;;;;5044395;28;20363;-90
2021/04/07 03:32:35;;;;;;;3.05;1.10;;;-2.60;94.10;;;;;;5052828;28;20032;-90
2021/04/07 03:35:01;;;;;;;3.35;1.00;;;-2.70;94.00;;;;;;5063565;28;20021;-90
2021/04/07 03:37:26;;;;;;;2.00;0.85;;;-2.70;94.10;;;;;;5050361;28;20052;-90
2021/04/07 03:39:52;;;;;;;3.13;1.20;;;-2.80;94.30;;;;;;5048890;28;20029;-90
2021/04/07 03:42:17;;;;;;;3.40;1.25;;;-2.70;94.50;;;;;;5051710;28;20363;-90
2021/04/07 03:44:43;;;;;;;3.92;1.10;;;-2.70;94.60;;;;;;5049058;28;20033;-90
2021/04/07 03:47:09;;;;;;;3.72;1.40;;;-2.70;94.60;;;;;;5051700;28;20025;-90
2021/04/07 03:49:35;;;;;;;3.13;0.90;;;-2.70;94.70;;;;;;5052561;28;20055;-90
2021/04/07 03:52:01;;;;;;;3.08;0.90;;;-2.70;94.70;;;;;;5051835;28;20033;-91
2021/04/07 03:54:27;;;;;;;3.17;0.85;;;-2.70;94.60;;;;;;5035282;28;20207;-91
2021/04/07 03:56:55;;;;;;;2.20;1.02;;;-2.70;94.50;;;;;;5033751;28;20041;-91
2021/04/07 03:59:21;;;;;;;2.72;1.05;;;-2.70;94.70;;;;;;5034031;28;20056;-91
2021/04/07 04:01:46;;;;;;;3.38;0.70;;;-2.80;94.70;;;;;;5034267;28;20429;-89
2021/04/07 04:04:13;;;;;;;3.63;1.10;;;-2.80;94.70;;;;;;5034037;28;20029;-90
2021/04/07 04:06:41;;;;;;;4.82;1.30;;;-2.80;94.60;;;;;;5034872;28;20037;-90
2021/04/07 04:09:06;;;;;;;2.22;1.00;;;-2.90;94.70;;;;;;5033761;28;20018;-90
2021/04/07 04:11:32;;;;;;;3.15;1.10;;;-2.90;94.70;;;;;;5033393;28;20036;-90
2021/04/07 04:13:59;;;;;;;0.85;0.70;;;-2.90;94.80;;;;;;5033605;28;20364;-89
2021/04/07 04:16:24;;;;;;;1.25;0.70;;;-3.00;94.90;;;;;;5037003;28;20038;-90
2021/04/07 04:18:50;;;;;;;2.08;0.88;;;-3.00;94.90;;;;;;5037278;28;20111;-90
2021/04/07 04:21:16;;;;;;;1.17;0.73;;;-3.00;94.90;;;;;;5036773;28;20021;-89
2021/04/07 04:23:41;;;;;;;1.50;0.93;;;-3.00;94.90;;;;;;5037738;28;20068;-88
2021/04/07 04:26:07;;;;;;;3.85;1.20;;;-3.00;94.90;;;;;;5037158;28;20026;-90
2021/04/07 04:28:32;;;;;;;4.00;0.90;;;-3.00;95.00;;;;;;5038344;28;20026;-89
2021/04/07 04:30:58;;;;;;;2.70;0.70;;;-3.00;95.00;;;;;;5037949;28;20036;-89
2021/04/07 04:33:24;;;;;;;1.75;0.90;;;-3.10;94.90;;;;;;5037270;28;20025;-90
2021/04/07 04:35:49;;;;;;;4.45;0.95;;;-3.10;94.90;;;;;;5037283;28;20056;-91
2021/04/07 04:38:16;;;;;;;3.03;1.73;;;-3.10;95.00;;;;;;5035806;28;20037;-89
2021/04/07 04:40:42;;;;;;;5.22;1.15;;;-3.20;94.90;;;;;;5035871;28;20120;-91
2021/04/07 04:43:08;;;;;;;3.10;1.00;;;-3.20;94.90;;;;;;5035893;28;20044;-90
2021/04/07 04:45:35;;;;;;;2.70;1.10;;;-3.20;95.10;;;;;;5035719;28;20026;-90
2021/04/07 04:48:01;;;;;;;4.28;1.08;;;-3.30;95.10;;;;;;5036497;28;20029;-89
2021/04/07 04:50:27;;;;;;;4.30;1.00;;;-3.30;95.20;;;;;;5036676;28;20025;-89
2021/04/07 04:52:53;;;;;;;5.43;0.90;;;-3.30;95.40;;;;;;5036079;28;20029;-90
2021/04/07 04:55:19;;;;;;;2.85;1.00;;;-3.20;95.40;;;;;;5036067;28;20520;-90
2021/04/07 04:57:44;;;;;;;4.80;0.82;;;-3.20;95.50;;;;;;5037214;28;20116;-90
2021/04/07 05:00:10;;;;;;;1.48;1.00;;;-3.30;95.50;;;;;;5035897;28;20144;-89
2021/04/07 05:02:36;;;;;;;4.75;1.15;;;-3.20;95.60;;;;;;5037087;28;20049;-90
2021/04/07 05:05:03;;;;;;;1.02;0.75;;;-3.20;95.80;;;;;;5035901;28;20030;-90
2021/04/07 05:07:29;;;;;;;2.20;0.73;;;-3.20;95.90;;;;;;5035883;28;20569;-89
2021/04/07 05:09:54;;;;;;;2.47;1.20;;;-3.20;95.90;;;;;;5049015;28;20025;-89
2021/04/07 05:12:20;;;;;;;1.67;0.95;;;-3.20;95.90;;;;;;5043552;28;20086;-89
2021/04/07 05:14:48;;;;;;;6.38;1.10;;;-3.30;95.90;;;;;;5048976;28;20391;-90
2021/04/07 05:17:14;;;;;;;3.65;0.88;;;-3.30;95.80;;;;;;5059967;28;20040;-91
2021/04/07 05:19:39;;;;;;;2.00;0.93;;;-3.30;95.80;;;;;;5066087;28;20070;-88
2021/04/07 05:22:05;;;;;;;2.38;1.10;;;-3.40;95.80;;;;;;5062048;28;20047;-90
2021/04/07 05:24:30;;;;;;;3.50;1.30;;;-3.40;95.90;;;;;;5055579;28;20028;-90
2021/04/07 05:26:56;;;;;;;2.80;1.08;;;-3.40;96.10;;;;;;5054463;28;20478;-90
2021/04/07 05:29:22;;;;;;;4.38;1.08;;;-3.50;96.20;;;;;;5061459;28;20025;-89
2021/04/07 05:31:49;;;;;;;4.00;2.08;;;-3.40;96.30;;;;;;5055941;28;20033;-90
2021/04/07 05:34:14;;;;;;;3.70;1.05;;;-3.40;96.40;;;;;;5054119;28;20165;-89
2021/04/07 05:36:40;;;;;;;2.45;0.88;;;-3.40;96.40;;;;;;5064598;28;20513;-89
2021/04/07 05:39:06;;;;;;;4.40;1.20;;;-3.40;96.50;;;;;;5055227;28;20062;-90
2021/04/07 05:41:32;;;;;;;2.58;1.23;;;-3.40;96.60;;;;;;5056639;28;20124;-89
2021/04/07 05:43:58;;;;;;;2.35;1.15;;;-3.30;96.60;;;;;;5056125;28;20541;-89
2021/04/07 05:46:24;;;;;;;2.60;1.20;;;-3.40;96.50;;;;;;5053582;28;20028;-90
2021/04/07 05:48:50;;;;;;;3.97;0.98;;;-3.40;96.40;;;;;;5056829;28;20115;-91
2021/04/07 05:51:15;;;;;;;3.15;0.82;;;-3.40;96.60;;;;;;5069383;28;20477;-89
2021/04/07 05:53:41;;;;;;;4.35;0.88;;;-3.40;96.60;;;;;;5055220;28;20029;-89
2021/04/07 05:56:07;;;;;;;1.77;0.90;;;-3.40;96.60;;;;;;5051740;28;20029;-89
2021/04/07 05:58:33;;;;;;;6.13;1.10;;;-3.40;96.70;;;;;;5055844;28;20025;-90
2021/04/07 06:00:59;;;;;;;4.22;0.93;;;-3.40;96.80;;;;;;5056187;28;20024;-90
2021/04/07 06:03:25;;;;;;;2.10;1.10;;;-3.40;96.70;;;;;;5058332;28;20052;-89
2021/04/07 06:05:51;;;;;;;3.50;1.27;;;-3.40;96.70;;;;;;5051285;28;20028;-90
2021/04/07 06:08:18;;;;;;;7.47;1.60;;;-3.40;96.60;;;;;;5052603;28;20017;-89
2021/04/07 06:10:46;;;;;;;3.33;1.10;;;-3.50;96.60;;;;;;5052825;28;20098;-90
2021/04/07 06:13:13;;;;;;;5.30;0.90;;;-3.50;96.70;;;;;;5051413;28;20029;-90
2021/04/07 06:15:40;;;;;;;2.72;1.27;;;-3.50;96.80;;;;;;5047199;28;20389;-89
2021/04/07 06:18:07;;;;;;;3.75;1.40;;;-3.50;96.80;;;;;;5050760;28;20102;-89
2021/04/07 06:20:44;;;;;;;6.80;1.20;;;-3.50;96.90;;;;;;5049954;28;20032;-89
2021/04/07 06:23:11;;;;;;;2.00;1.23;;;-3.60;96.90;;;;;;5049007;28;20028;-89
2021/04/07 06:25:38;;;;;;;5.75;1.40;;;-3.60;97.00;;;;;;5049439;28;20032;-90
2021/04/07 06:28:07;;;;;;;2.78;1.08;;;-3.50;97.10;;;;;;5045884;28;20040;-90
2021/04/07 06:30:46;;;;;;;2.67;1.17;;;-3.50;97.20;;;;;;5050616;28;20143;-90
2021/04/07 06:33:16;;;;;;;2.50;1.23;;;-3.50;97.30;;;;;;5065863;28;20020;-90
2021/04/07 06:35:45;;;;;;;2.00;1.10;;;-3.50;97.30;;;;;;5049188;28;20039;-89
2021/04/07 06:38:11;;;;;;;5.68;1.58;;;-3.40;97.40;;;;;;5052180;28;20036;-89
2021/04/07 06:40:55;;;;;;;5.22;1.35;;;-3.40;97.30;;;;;;5057167;28;20111;-89
2021/04/07 06:43:27;;;;;;;5.95;1.77;;;-3.30;97.40;;;;;;5066054;28;20040;-88
2021/04/07 06:45:53;;;;;;;3.13;1.30;;;-3.30;97.70;;;;;;5052409;28;20055;-91
2021/04/07 06:48:20;;;;;;;7.38;1.73;;;-3.30;97.60;;;;;;5047068;28;20029;-90
2021/04/07 06:50:48;;;;;;;2.35;1.20;;;-3.20;97.30;;;;;;5053385;28;20535;-89
2021/04/07 06:53:16;;;;;;;3.47;1.17;;;-3.20;97.40;;;;;;5065857;28;20028;-89
2021/04/07 06:55:42;;;;;;;3.25;1.20;;;-3.20;97.50;;;;;;5049304;28;20016;-89
2021/04/07 06:58:09;;;;;;;2.25;0.82;;;-3.10;97.50;;;;;;5054207;28;20086;-90
2021/04/07 07:00:36;;;;;;;4.20;1.35;;;-3.10;97.60;;;;;;5062134;28;20021;-90
2021/04/07 07:03:07;;;;;;;2.47;1.00;;;-3.00;97.60;;;;;;5064065;28;20036;-89
2021/04/07 07:05:35;;;;;;;5.53;1.00;;;-2.90;97.60;;;;;;5064818;28;20028;-89
2021/04/07 07:08:07;;;;;;;4.57;1.95;;;-2.90;97.60;;;;;;5048128;28;20102;-90
2021/04/07 07:10:38;;;;;;;3.45;1.30;;;-2.90;97.50;;;;;;5048347;28;20032;-90
2021/04/07 07:13:05;;;;;;;3.38;1.50;;;-2.80;97.50;;;;;;5052331;28;20030;-90
2021/04/07 07:15:32;;;;;;;3.30;1.75;;;-2.70;97.50;;;;;;5048661;28;20115;-90
2021/04/07 07:17:58;;;;;;;7.15;1.40;;;-2.60;97.50;;;;;;5047444;28;20457;-89
2021/04/07 07:20:36;;;;;;;2.78;1.40;;;-2.60;97.50;;;;;;5047680;28;20125;-90
2021/04/07 07:23:02;;;;;;;3.60;1.15;;;-2.50;97.50;;;;;;5046186;28;20035;-90
2021/04/07 07:25:29;;;;;;;2.13;1.00;;;-2.40;97.50;;;;;;5044367;28;20017;-88
2021/04/07 07:28:13;;;;;;;3.13;1.10;;;-2.30;97.60;;;;;;5047668;28;20037;-89
2021/04/07 07:30:43;;;;;;;3.83;1.75;;;-2.20;97.60;;;;;;5046469;28;20032;-92
2021/04/07 07:33:17;;;;;;;3.33;1.08;;;-2.10;97.50;;;;;;5052751;28;20024;-91
2021/04/07 07:35:45;;;;;;;3.33;1.00;;;-1.90;97.50;;;;;;5047303;28;20036;-89
2021/04/07 07:38:11;;;;;;;3.05;1.27;;;-1.80;97.40;;;;;;5047328;28;20487;-90
2021/04/07 07:40:38;;;;;;;1.70;1.08;;;-1.70;97.40;;;;;;5049134;28;20025;-89
2021/04/07 07:43:04;;;;;;;6.60;1.95;;;-1.60;97.30;;;;;;5048942;28;20032;-90
2021/04/07 07:45:34;;;;;;;2.50;0.90;;;-1.30;97.00;;;;;;5062944;28;20021;-89
2021/04/07 07:48:20;;;;;;;4.18;0.98;;;-1.10;96.80;;;;;;5053881;28;20029;-91
2021/04/07 07:50:47;;;;;;;4.78;1.02;;;-0.90;95.60;;;;;;5071565;28;20107;-91
2021/04/07 07:53:21;;;;;;;6.28;0.90;;;-0.60;95.00;;;;;;5058470;28;20020;-91
2021/04/07 07:55:51;;;;;;;7.82;0.73;;;-0.40;94.10;;;;;;5065856;28;20088;-91
2021/04/07 07:58:17;;;;;;;4.07;2.00;;;-0.20;92.70;;;;;;5067106;28;20047;-90
2021/04/07 08:00:44;;;;;;;3.03;0.68;;;0.00;91.30;;;;;;5060830;28;20043;-90
2021/04/07 08:03:11;;;;;;;1.00;0.50;;;0.20;90.50;;;;;;5052441;28;20036;-91
2021/04/07 08:05:37;;;;;;;1.23;0.47;;;0.30;89.70;;;;;;5049635;28;20016;-93
2021/04/07 08:08:04;;;;;;;2.35;1.02;;;0.40;88.00;;;;;;5051721;28;20021;-91
2021/04/07 08:10:32;;;;;;;3.30;0.60;;;0.60;86.90;;;;;;5055674;28;20033;-88
2021/04/07 08:13:00;;;;;;;2.72;1.05;;;0.80;85.40;;;;;;5056213;28;20024;-89
2021/04/07 08:15:31;;;;;;;4.38;0.90;;;0.80;84.20;;;;;;5074493;28;20473;-90
2021/04/07 08:17:57;;;;;;;;;;;1.00;83.60;;;;;;5061827;28;20223;-91
2021/04/07 08:20:25;;;;;;;2.42;0.90;;;1.10;83.30;;;;;;5066897;28;20011;-92
2021/04/07 08:22:56;;;;;;;2.97;0.90;;;1.20;83.30;;;;;;5066392;28;20445;-91
2021/04/07 08:25:22;;;;;;;1.75;0.40;;;1.40;83.40;;;;;;5073584;28;20091;-92
2021/04/07 08:27:52;;;;;;;5.47;1.20;;;1.50;83.10;;;;;;5067290;28;20024;-91
2021/04/07 08:30:21;;;;;;;5.15;1.02;;;1.60;82.50;;;;;;5091642;28;20046;-91
2021/04/07 08:32:49;;;;;;;3.80;0.80;;;1.70;81.80;;;;;;5062163;28;20028;-89
2021/04/07 08:35:16;;;;;;;2.88;0.75;;;1.80;81.00;;;;;;5049418;28;20036;-90
2021/04/07 08:37:42;;;;;;;1.15;0.63;;;2.00;80.10;;;;;;5042441;28;20040;-91
2021/04/07 08:40:12;;;;;;;3.38;0.70;;;2.00;79.40;;;;;;5041559;28;20025;-92
2021/04/07 08:42:40;;;;;;;1.80;0.88;;;2.10;79.20;;;;;;5048477;28;20032;-94
2021/04/07 08:45:12;;;;;;;3.47;0.95;;;2.20;78.70;;;;;;5043669;28;20037;-93
2021/04/07 08:47:49;;;;;;;3.75;0.80;;;2.30;77.80;;;;;;5058347;28;20033;-93
2021/04/07 08:50:15;;;;;;;3.45;0.90;;;2.40;77.60;;;;;;5064794;28;20028;-93
2021/04/07 08:52:50;;;;;;;1.85;0.60;;;2.60;77.20;;;;;;5067884;28;20029;-92
2021/04/07 08:55:24;;;;;;;1.98;0.60;;;2.70;76.50;;;;;;5070356;28;20021;-93
2021/04/07 08:58:04;;;;;;;2.97;0.80;;;2.70;75.50;;;;;;5061769;28;20052;-93
2021/04/07 09:00:32;;;;;;;2.58;0.73;;;2.70;74.50;;;;;;5064351;28;20025;-94
2021/04/07 09:03:14;;;;;;;2.20;1.05;;;2.70;74.80;;;;;;5064574;28;20021;-93
2021/04/07 09:05:45;;;;;;;2.97;1.00;;;2.80;74.70;;;;;;5056328;28;20498;-92
2021/04/07 09:08:15;;;;;;;;;;;2.90;74.70;;;;;;5060301;28;20100;-92
2021/04/07 09:10:42;;;;;;;1.52;0.50;;;3.00;74.50;;;;;;5045791;28;20007;-93
2021/04/07 09:13:09;;;;;;;1.88;0.75;;;3.00;73.70;;;;;;5078475;28;20070;-91
2021/04/07 09:15:52;;;;;;;4.57;1.67;;;3.20;73.20;;;;;;5060242;28;20031;-92
2021/04/07 09:18:31;;;;;;;5.07;1.20;;;3.30;73.00;;;;;;5059850;28;20040;-89
2021/04/07 09:20:58;;;;;;;4.00;1.13;;;3.50;72.50;;;;;;5060260;28;20101;-94
2021/04/07 09:23:39;;;;;;;1.80;0.90;;;3.60;72.20;;;;;;5076937;28;20028;-93
2021/04/07 09:26:13;;;;;;;5.13;1.40;;;3.60;71.60;;;;;;5060659;28;20070;-91
2021/04/07 09:28:39;;;;;;;4.00;1.30;;;3.70;70.70;;;;;;5063678;28;20024;-93
2021/04/07 09:31:20;;;;;;;3.10;1.33;;;3.90;70.30;;;;;;5062726;28;20060;-93
2021/04/07 09:33:47;;;;;;;;;;;4.00;70.40;;;;;;5061427;28;20037;-92
2021/04/07 09:36:15;;;;;;;3.15;1.10;;;4.20;69.60;;;;;;5061561;28;19987;-94
2021/04/07 09:38:49;;;;;;;7.03;1.90;;;4.30;69.00;;;;;;5060869;28;20485;-92
2021/04/07 09:41:23;;;;;;;3.90;1.45;;;4.40;67.80;;;;;;5059851;28;20033;-93
2021/04/07 09:43:49;;;;;;;6.82;1.58;;;4.40;67.50;;;;;;5058508;28;20021;-92
2021/04/07 09:46:15;;;;;;;7.22;1.40;;;4.50;67.10;;;;;;5058349;28;20024;-92
2021/04/07 09:48:50;;;;;;;3.67;1.40;;;4.80;66.50;;;;;;5058308;28;20167;-94
2021/04/07 09:51:27;;;;;;;4.60;1.42;;;5.00;65.60;;;;;;5058260;28;20123;-92
2021/04/07 09:54:12;;;;;;;4.55;1.60;;;5.20;64.90;;;;;;5058414;28;20032;-94
2021/04/07 09:56:45;;;;;;;6.28;2.00;;;5.30;63.60;;;;;;5057873;28;20158;-93
2021/04/07 09:59:11;;;;;;;2.47;1.30;;;5.50;63.20;;;;;;5057844;28;20020;-91
2021/04/07 10:01:40;;;;;;;2.10;0.80;;;5.60;62.70;;;;;;5058127;28;20577;-92
2021/04/07 10:04:08;;;;;;;6.90;1.25;;;5.70;62.30;;;;;;5058349;28;20497;-94
2021/04/07 10:06:34;;;;;;;3.88;0.95;;;5.90;62.20;;;;;;5058092;28;20092;-93
2021/04/07 10:09:03;;;;;;;4.40;1.30;;;6.00;62.00;;;;;;5057330;28;20473;-93
2021/04/07 10:11:30;;;;;;;3.50;1.27;;;6.20;61.60;;;;;;5057154;28;20347;-94
2021/04/07 10:13:59;;;;;;;4.35;1.30;;;6.40;61.00;;;;;;5057612;28;20035;-94
2021/04/07 10:16:26;;;;;;;5.60;1.60;;;6.60;60.70;;;;;;5057559;28;20099;-94
2021/04/07 10:18:52;;;;;;;2.47;0.70;;;6.80;60.10;;;;;;5057084;28;20250;-93
2021/04/07 10:21:19;;;;;;;2.85;1.15;;;7.00;59.90;;;;;;5057095;28;20088;-94
2021/04/07 10:23:47;;;;;;;2.95;0.85;;;7.10;59.40;;;;;;5057301;28;20052;-94
2021/04/07 10:26:16;;;;;;;0.98;0.60;;;7.00;58.60;;;;;;5057650;28;20029;-94
2021/04/07 10:28:53;;;;;;;0.98;0.60;;;7.00;58.40;;;;;;5057633;28;20024;-93
2021/04/07 10:31:19;;;;;;;3.70;1.17;;;6.80;57.90;;;;;;5056987;28;20363;-94
2021/04/07 10:33:44;;;;;;;4.75;1.17;;;6.50;57.60;;;;;;5056899;28;20132;-94
2021/04/07 10:36:10;;;;;;;4.80;0.85;;;6.50;58.20;;;;;;5057073;28;20127;-93
2021/04/07 10:38:36;;;;;;;3.45;0.75;;;6.60;58.60;;;;;;5056912;28;20036;-94
2021/04/07 10:41:04;;;;;;;4.47;1.10;;;6.60;58.70;;;;;;5056269;28;20048;-95
2021/04/07 10:43:39;;;;;;;3.28;0.80;;;6.70;58.70;;;;;;5057079;28;20062;-94
2021/04/07 10:46:07;;;;;;;3.22;0.60;;;6.70;58.50;;;;;;5041288;28;20410;-94
2021/04/07 10:48:34;;;;;;;3.15;0.73;;;6.70;58.20;;;;;;5056902;28;20036;-94
2021/04/07 10:51:01;;;;;;;2.58;0.60;;;6.70;57.80;;;;;;5056651;28;20035;-95
2021/04/07 10:53:33;;;;;;;3.45;0.80;;;6.90;57.80;;;;;;5057823;28;20020;-94
2021/04/07 10:56:00;;;;;;;1.88;0.60;;;7.00;57.10;;;;;;5060946;28;20035;-94
2021/04/07 10:58:29;;;;;;;1.15;0.50;;;7.10;57.00;;;;;;5060510;28;20028;-95
2021/04/07 11:00:56;;;;;;;0.75;0.50;;;7.10;57.10;;;;;;5042022;28;20032;-94
2021/04/07 11:03:32;;;;;;;3.30;0.65;;;7.20;57.00;;;;;;5057494;28;20057;-94
2021/04/07 11:05:58;;;;;;;1.77;0.43;;;7.40;56.90;;;;;;5039642;28;20024;-95
2021/04/07 11:08:54;;;;;;;2.08;0.60;;;7.50;56.50;;;;;;5039510;28;20260;-93
2021/04/07 11:11:26;;;;;;;1.15;0.50;;;7.80;55.90;;;;;;5021421;28;20033;-92
2021/04/07 11:13:55;;;;;;;1.48;0.70;;;7.90;55.40;;;;;;5038865;28;20024;-94
2021/04/07 11:16:33;;;;;;;1.13;0.55;;;8.00;55.20;;;;;;5037592;28;20037;-94
2021/04/07 11:18:59;;;;;;;3.88;1.23;;;7.90;55.10;;;;;;5036843;28;20047;-94
2021/04/07 11:21:25;;;;;;;4.38;1.23;;;7.80;55.30;;;;;;5040053;28;20100;-93
2021/04/07 11:23:51;;;;;;;4.35;1.20;;;7.80;55.70;;;;;;5037574;28;20021;-94
2021/04/07 11:26:16;;;;;;;4.05;0.95;;;7.70;55.50;;;;;;5051773;28;20028;-93
2021/04/07 11:28:42;;;;;;;6.07;1.38;;;7.60;55.40;;;;;;5060421;28;20032;-95
2021/04/07 11:31:12;;;;;;;2.70;0.80;;;7.40;55.50;;;;;;5045925;28;20498;-94
2021/04/07 11:33:58;;;;;;;2.75;0.75;;;7.30;55.70;;;;;;5061275;28;20112;-95
2021/04/07 11:39:10;;;;;;;2.20;0.90;;;8.10;55.80;;;;;;5076639;28;20020;-94
2021/04/07 11:46:47;;;;;;;3.10;0.60;;;9.00;52.90;;;;;;5075422;28;20035;-92
2021/04/07 11:49:12;;;;;;;1.35;1.00;;;9.00;52.10;;;;;;5056946;28;20036;-94
2021/04/07 11:51:41;;;;;;;4.00;0.63;;;9.20;52.40;;;;;;5056781;28;20040;-92
2021/04/07 11:54:09;;;;;;;1.27;0.63;;;9.50;51.80;;;;;;5063317;28;20024;-95
2021/04/07 11:56:42;;;;;;;1.80;0.85;;;9.80;51.50;;;;;;5073411;28;20029;-95
2021/04/07 11:59:08;;;;;;;4.20;1.10;;;10.00;51.20;;;;;;5049030;28;20037;-94
2021/04/07 12:01:34;;;;;;;2.88;0.70;;;10.10;50.60;;;;;;5064779;28;20057;-95
2021/04/07 12:04:01;;;;;;;3.60;0.80;;;10.10;50.10;;;;;;5063368;28;20025;-94
2021/04/07 12:06:26;;;;;;;6.07;1.20;;;10.20;50.00;;;;;;5061569;28;20539;-94
2021/04/07 12:08:53;;;;;;;4.03;1.45;;;10.00;49.70;;;;;;5060750;28;20048;-94
2021/04/07 12:11:19;;;;;;;0.63;0.57;;;9.80;50.20;;;;;;5060351;28;20032;-94
2021/04/07 12:13:45;;;;;;;1.52;0.70;;;9.50;50.10;;;;;;5059867;28;20028;-94
2021/04/07 12:16:11;;;;;;;3.33;1.05;;;9.40;50.30;;;;;;5058494;28;20043;-95
2021/04/07 12:18:37;;;;;;;2.83;0.70;;;9.70;50.80;;;;;;5057225;28;20048;-94
2021/04/07 12:21:03;;;;;;;3.67;0.80;;;9.90;50.30;;;;;;5056314;28;20039;-93
2021/04/07 12:23:29;;;;;;;1.98;1.00;;;10.20;50.50;;;;;;5061443;28;20086;-93
2021/04/07 12:25:55;;;;;;;2.97;1.23;;;10.60;50.40;;;;;;5064248;28;20016;-93
2021/04/07 12:28:22;;;;;;;3.75;0.85;;;10.90;49.60;;;;;;5060109;28;20024;-93
2021/04/07 12:30:49;;;;;;;3.50;0.73;;;10.90;49.00;;;;;;5060383;28;20024;-93
2021/04/07 12:33:29;;;;;;;2.47;0.90;;;10.80;48.70;;;;;;5060298;28;20465;-95
2021/04/07 12:36:01;;;;;;;3.47;0.88;;;10.60;48.50;;;;;;5062409;28;20031;-95
2021/04/07 12:38:30;;;;;;;1.27;0.70;;;10.70;48.80;;;;;;5070618;28;20088;-96
2021/04/07 12:40:57;;;;;;;0.82;0.40;;;10.70;48.60;;;;;;5066387;28;20034;-95
2021/04/07 12:43:23;;;;;;;3.38;0.75;;;10.80;48.40;;;;;;5068487;28;20067;-95
2021/04/07 12:45:49;;;;;;;1.70;0.60;;;10.90;48.40;;;;;;5066773;28;20028;-94
2021/04/07 12:48:15;;;;;;;3.13;1.20;;;10.80;48.40;;;;;;5060865;28;20047;-94
2021/04/07 12:50:42;;;;;;;4.10;0.98;;;10.60;48.10;;;;;;5061748;28;20065;-95
2021/04/07 12:53:08;;;;;;;3.03;0.82;;;10.20;48.40;;;;;;5064887;28;20020;-94
2021/04/07 12:55:34;;;;;;;1.98;0.60;;;10.00;48.90;;;;;;5066876;28;20047;-96
2021/04/07 12:58:00;;;;;;;1.98;0.82;;;9.80;49.20;;;;;;5061830;28;20036;-95
2021/04/07 13:00:30;;;;;;;3.03;0.60;;;9.50;49.50;;;;;;5066648;28;20385;-94
2021/04/07 13:02:57;;;;;;;1.27;0.75;;;9.50;50.00;;;;;;5062540;28;20031;-93